Time;durP1;ratioP1;P1;durP2;ratioP2;P2;SDS_P1;SDS_P2;PMS_P1;PMS_P2;Temp;Humidity;BMP_temperature;BMP_pressure;BME280_temperature;BME280_humidity;BME280_pressure;Samples;Min_cycle;Max_cycle;Signal;HPM_P1;HPM_P2
2021/05/24 00:00:58;;;;;;;3.60;2.80;;;13.10;81.70;;;;;;5049609;28;20021;-58
2021/05/24 00:03:23;;;;;;;3.80;2.90;;;13.20;81.60;;;;;;5048632;28;20041;-58
2021/05/24 00:05:49;;;;;;;3.42;2.90;;;13.20;81.50;;;;;;5046476;28;20029;-56
2021/05/24 00:08:15;;;;;;;3.47;2.70;;;13.20;81.70;;;;;;5051201;28;20068;-58
2021/05/24 00:10:42;;;;;;;4.10;3.08;;;13.20;81.70;;;;;;5052522;28;20052;-53
2021/05/24 00:13:09;;;;;;;4.93;3.17;;;13.20;81.80;;;;;;5045171;28;20045;-58
2021/05/24 00:15:42;;;;;;;4.00;3.13;;;13.10;81.90;;;;;;5033478;28;20025;-55
2021/05/24 00:18:08;;;;;;;3.83;3.10;;;13.00;81.90;;;;;;5030960;28;20053;-57
2021/05/24 00:20:37;;;;;;;4.60;3.30;;;13.00;82.30;;;;;;5032749;28;20116;-57
2021/05/24 00:23:03;;;;;;;3.88;3.03;;;13.10;82.70;;;;;;5043897;28;20546;-58
2021/05/24 00:25:29;;;;;;;5.30;3.35;;;13.00;83.00;;;;;;5035602;28;20072;-57
2021/05/24 00:27:56;;;;;;;3.97;3.40;;;13.00;83.80;;;;;;5030780;28;20061;-57
2021/05/24 00:30:22;;;;;;;5.45;3.67;;;13.00;84.00;;;;;;5033080;28;20121;-57
2021/05/24 00:32:47;;;;;;;4.10;3.58;;;12.90;83.60;;;;;;5031299;28;20068;-58
2021/05/24 00:35:14;;;;;;;4.13;3.50;;;12.90;84.20;;;;;;5030912;28;20026;-56
2021/05/24 00:37:40;;;;;;;5.15;3.95;;;12.80;84.10;;;;;;5031483;28;20042;-51
2021/05/24 00:40:08;;;;;;;4.95;4.35;;;12.90;84.00;;;;;;5031954;28;20081;-57
2021/05/24 00:42:34;;;;;;;4.70;3.40;;;12.80;84.00;;;;;;5032161;28;20397;-59
2021/05/24 00:45:02;;;;;;;6.95;3.50;;;12.70;84.50;;;;;;5032298;28;20045;-57
2021/05/24 00:47:28;;;;;;;4.15;3.20;;;12.60;85.50;;;;;;5032053;28;20036;-56
2021/05/24 00:49:53;;;;;;;5.22;3.90;;;12.60;85.80;;;;;;5031857;28;20037;-53
2021/05/24 00:52:19;;;;;;;3.38;3.08;;;12.60;85.90;;;;;;5029942;28;20038;-57
2021/05/24 00:54:45;;;;;;;5.45;3.40;;;12.70;85.70;;;;;;5031562;28;20117;-58
2021/05/24 00:57:10;;;;;;;5.47;3.63;;;12.70;85.40;;;;;;5031595;28;20037;-58
2021/05/24 00:59:36;;;;;;;4.25;3.45;;;12.70;85.40;;;;;;5031747;28;20121;-58
2021/05/24 01:02:03;;;;;;;4.57;3.33;;;12.70;85.30;;;;;;5032507;28;20064;-58
2021/05/24 01:04:29;;;;;;;5.15;3.33;;;12.70;85.40;;;;;;5032198;28;20034;-57
2021/05/24 01:06:55;;;;;;;6.35;3.80;;;12.60;85.90;;;;;;5032108;28;20555;-57
2021/05/24 01:09:21;;;;;;;5.45;3.47;;;12.60;85.70;;;;;;5032094;28;20068;-57
2021/05/24 01:11:48;;;;;;;3.80;3.40;;;12.40;83.80;;;;;;5041378;28;20068;-57
2021/05/24 01:14:15;;;;;;;4.22;3.60;;;12.30;85.30;;;;;;5035632;28;20038;-58
2021/05/24 01:16:43;;;;;;;4.13;3.50;;;12.20;86.40;;;;;;5032369;28;20034;-59
2021/05/24 01:19:08;;;;;;;7.60;3.70;;;12.20;86.80;;;;;;5031255;28;20033;-54
2021/05/24 01:21:34;;;;;;;5.70;3.47;;;12.30;87.10;;;;;;5034908;28;20456;-57
2021/05/24 01:24:00;;;;;;;4.03;3.35;;;12.20;85.80;;;;;;5044688;28;20041;-58
2021/05/24 01:26:27;;;;;;;4.78;3.22;;;12.20;84.90;;;;;;5030085;28;20059;-57
2021/05/24 01:28:53;;;;;;;6.40;3.58;;;12.20;84.80;;;;;;5030024;28;20413;-56
2021/05/24 01:31:18;;;;;;;6.50;3.72;;;12.30;84.60;;;;;;5033454;28;20033;-56
2021/05/24 01:33:44;;;;;;;3.85;3.13;;;12.30;84.30;;;;;;5034556;28;20036;-54
2021/05/24 01:36:11;;;;;;;4.47;3.42;;;12.20;84.20;;;;;;5033644;28;20117;-55
2021/05/24 01:38:40;;;;;;;4.45;3.22;;;12.30;84.40;;;;;;5036356;28;20116;-58
2021/05/24 01:41:08;;;;;;;4.13;3.20;;;12.20;84.70;;;;;;5034116;28;20059;-59
2021/05/24 01:43:34;;;;;;;4.70;3.88;;;12.30;84.70;;;;;;5031369;28;20061;-57
2021/05/24 01:46:00;;;;;;;5.00;3.65;;;12.20;84.80;;;;;;5031996;28;20029;-58
2021/05/24 01:48:26;;;;;;;4.22;3.83;;;12.20;84.60;;;;;;5035065;28;20515;-57
2021/05/24 01:50:52;;;;;;;5.72;3.60;;;12.10;84.50;;;;;;5031417;28;20025;-58
2021/05/24 01:53:19;;;;;;;5.03;4.13;;;12.10;85.30;;;;;;5036349;28;20030;-57
2021/05/24 01:55:45;;;;;;;6.80;3.90;;;12.00;85.80;;;;;;5035953;28;20040;-55
2021/05/24 01:58:11;;;;;;;4.00;3.25;;;12.00;85.70;;;;;;5037295;28;20393;-58
2021/05/24 02:00:37;;;;;;;6.03;3.40;;;11.90;85.50;;;;;;5030932;28;20030;-55
2021/05/24 02:03:03;;;;;;;4.82;3.63;;;12.00;85.30;;;;;;5033523;28;20048;-56
2021/05/24 02:05:29;;;;;;;4.50;3.55;;;12.00;85.20;;;;;;5041139;28;20041;-58
2021/05/24 02:07:56;;;;;;;5.05;3.72;;;12.00;85.50;;;;;;5038775;28;20029;-57
2021/05/24 02:10:25;;;;;;;5.45;3.38;;;12.00;85.80;;;;;;5038725;28;20432;-57
2021/05/24 02:12:51;;;;;;;4.55;3.40;;;11.90;86.70;;;;;;5049573;28;20093;-58
2021/05/24 02:15:20;;;;;;;3.75;3.35;;;11.90;86.60;;;;;;5042206;28;20494;-57
2021/05/24 02:17:45;;;;;;;5.03;3.92;;;11.90;85.90;;;;;;5036704;28;20029;-55
2021/05/24 02:20:12;;;;;;;5.82;3.63;;;11.90;86.10;;;;;;5037714;28;20057;-56
2021/05/24 02:22:38;;;;;;;4.75;3.97;;;11.80;85.90;;;;;;5037878;28;20057;-57
2021/05/24 02:25:06;;;;;;;5.45;4.00;;;11.80;85.80;;;;;;5034103;28;20026;-58
2021/05/24 02:27:31;;;;;;;4.63;3.40;;;11.80;85.70;;;;;;5036117;28;20045;-58
2021/05/24 02:29:57;;;;;;;4.53;3.75;;;11.90;85.40;;;;;;5034301;28;20079;-56
2021/05/24 02:32:23;;;;;;;5.43;3.85;;;11.90;85.70;;;;;;5032973;28;20493;-56
2021/05/24 02:34:49;;;;;;;5.65;3.60;;;11.90;85.70;;;;;;5035344;28;20112;-56
2021/05/24 02:37:14;;;;;;;5.30;4.05;;;11.80;85.70;;;;;;5039382;28;20047;-53
2021/05/24 02:39:40;;;;;;;5.07;3.97;;;11.70;85.30;;;;;;5042134;28;20033;-55
2021/05/24 02:42:06;;;;;;;4.30;3.78;;;11.60;85.20;;;;;;5035913;28;20026;-54
2021/05/24 02:44:31;;;;;;;6.07;3.97;;;11.60;85.20;;;;;;5035304;28;20026;-55
2021/05/24 02:46:57;;;;;;;4.75;3.72;;;11.70;85.00;;;;;;5035029;28;20508;-55
2021/05/24 02:49:23;;;;;;;4.63;3.88;;;11.60;84.90;;;;;;5034216;28;20037;-57
2021/05/24 02:51:48;;;;;;;6.20;4.20;;;11.60;85.10;;;;;;5045251;28;20030;-57
2021/05/24 02:54:14;;;;;;;5.25;3.95;;;11.60;85.20;;;;;;5029929;28;20058;-57
2021/05/24 02:56:39;;;;;;;4.25;3.60;;;11.50;85.30;;;;;;5039478;28;20048;-57
2021/05/24 02:59:05;;;;;;;4.15;3.72;;;11.60;85.10;;;;;;5032858;28;20441;-56
2021/05/24 03:01:32;;;;;;;4.45;4.05;;;11.60;85.00;;;;;;5045757;28;20033;-53
2021/05/24 03:04:00;;;;;;;4.22;3.75;;;11.60;85.00;;;;;;5034650;28;20033;-57
2021/05/24 03:06:26;;;;;;;5.60;3.80;;;11.50;85.20;;;;;;5036122;28;20048;-53
2021/05/24 03:08:52;;;;;;;4.38;3.65;;;11.50;85.10;;;;;;5034365;28;20044;-56
2021/05/24 03:11:18;;;;;;;5.47;3.65;;;11.60;84.80;;;;;;5043352;28;20484;-55
2021/05/24 03:13:44;;;;;;;7.38;4.35;;;11.60;84.70;;;;;;5041983;28;20025;-57
2021/05/24 03:16:10;;;;;;;4.85;3.85;;;11.70;84.50;;;;;;5040017;28;20028;-56
2021/05/24 03:18:35;;;;;;;5.85;3.92;;;11.70;84.50;;;;;;5033539;28;20049;-57
2021/05/24 03:21:01;;;;;;;4.72;3.90;;;11.70;84.30;;;;;;5034470;28;20112;-55
2021/05/24 03:23:27;;;;;;;4.97;4.00;;;11.70;84.40;;;;;;5033690;28;20497;-57
2021/05/24 03:25:53;;;;;;;4.50;3.85;;;11.70;84.50;;;;;;5039679;28;20041;-59
2021/05/24 03:28:19;;;;;;;4.13;3.72;;;11.70;84.20;;;;;;5031821;28;20034;-59
2021/05/24 03:30:44;;;;;;;4.68;3.90;;;11.70;84.00;;;;;;5039360;28;20049;-56
2021/05/24 03:33:10;;;;;;;4.38;3.97;;;11.80;84.00;;;;;;5034256;28;20030;-57
2021/05/24 03:35:35;;;;;;;5.10;3.72;;;11.90;83.70;;;;;;5044224;28;20046;-57
2021/05/24 03:38:02;;;;;;;6.05;4.28;;;11.90;83.70;;;;;;5039765;28;20075;-58
2021/05/24 03:40:27;;;;;;;5.85;4.07;;;12.00;83.60;;;;;;5033470;28;20079;-55
2021/05/24 03:42:53;;;;;;;5.82;4.10;;;12.00;83.40;;;;;;5033178;28;20485;-56
2021/05/24 03:45:26;;;;;;;4.50;4.00;;;12.00;83.30;;;;;;5033289;28;20116;-59
2021/05/24 03:47:51;;;;;;;6.28;3.85;;;12.00;83.40;;;;;;5038158;28;20037;-56
2021/05/24 03:50:18;;;;;;;5.82;3.90;;;12.00;83.40;;;;;;5033782;28;20460;-57
2021/05/24 03:52:44;;;;;;;5.70;4.53;;;12.00;83.20;;;;;;5034018;28;20437;-57
2021/05/24 03:55:17;;;;;;;5.85;3.78;;;12.00;83.10;;;;;;5033184;28;20470;-57
2021/05/24 03:57:43;;;;;;;5.72;4.15;;;12.10;83.00;;;;;;5038564;28;20069;-55
2021/05/24 04:00:10;;;;;;;5.82;3.70;;;12.10;83.10;;;;;;5032785;28;20045;-58
2021/05/24 04:02:35;;;;;;;6.50;3.60;;;12.10;83.00;;;;;;5042470;28;20037;-58
2021/05/24 04:05:09;;;;;;;4.65;3.80;;;12.20;82.90;;;;;;5033027;28;20033;-56
2021/05/24 04:07:35;;;;;;;5.32;4.13;;;12.20;82.70;;;;;;5046182;28;20041;-58
2021/05/24 04:10:01;;;;;;;4.55;3.42;;;12.20;82.50;;;;;;5032498;28;20418;-56
2021/05/24 04:12:26;;;;;;;5.10;3.75;;;12.20;82.50;;;;;;5047036;28;20052;-57
2021/05/24 04:14:52;;;;;;;4.78;3.47;;;12.30;82.60;;;;;;5034928;28;20404;-58
2021/05/24 04:17:21;;;;;;;6.43;3.20;;;12.30;82.40;;;;;;5032724;28;20127;-58
2021/05/24 04:19:47;;;;;;;3.78;3.22;;;12.30;82.20;;;;;;5038211;28;20508;-57
2021/05/24 04:22:13;;;;;;;5.03;3.30;;;12.30;82.10;;;;;;5033109;28;20064;-55
2021/05/24 04:24:38;;;;;;;4.60;2.90;;;12.30;82.10;;;;;;5039373;28;20377;-55
2021/05/24 04:27:04;;;;;;;5.20;3.15;;;12.40;81.90;;;;;;5032314;28;20485;-58
2021/05/24 04:29:30;;;;;;;4.25;3.47;;;12.30;82.00;;;;;;5040789;28;20029;-57
2021/05/24 04:31:55;;;;;;;5.88;3.58;;;12.30;82.20;;;;;;5031310;28;20409;-54
2021/05/24 04:34:21;;;;;;;4.03;2.90;;;12.30;82.30;;;;;;5040548;28;20044;-58
2021/05/24 04:36:46;;;;;;;12.80;8.32;;;12.30;82.30;;;;;;5032985;28;20095;-58
2021/05/24 04:39:12;;;;;;;5.20;4.30;;;12.30;82.80;;;;;;5038944;28;20041;-57
2021/05/24 04:41:37;;;;;;;5.05;3.70;;;12.30;82.30;;;;;;5043773;28;20099;-59
2021/05/24 04:44:19;;;;;;;3.78;3.13;;;12.20;82.70;;;;;;5031964;28;20088;-55
2021/05/24 04:46:48;;;;;;;4.70;3.13;;;12.20;82.60;;;;;;5037287;28;20052;-55
2021/05/24 04:49:13;;;;;;;4.18;2.90;;;12.30;82.40;;;;;;5034106;28;20095;-56
2021/05/24 04:51:39;;;;;;;5.47;3.50;;;12.30;82.10;;;;;;5032687;28;20037;-53
2021/05/24 04:54:06;;;;;;;3.60;3.13;;;12.30;82.00;;;;;;5033786;28;20049;-54
2021/05/24 04:56:33;;;;;;;4.47;3.20;;;12.20;82.40;;;;;;5021329;28;20087;-52
2021/05/24 04:58:59;;;;;;;4.65;3.40;;;12.20;82.30;;;;;;5032152;28;20045;-56
2021/05/24 05:01:25;;;;;;;4.22;3.50;;;12.30;82.40;;;;;;5033256;28;20029;-58
2021/05/24 05:03:50;;;;;;;4.13;3.25;;;12.40;82.20;;;;;;5034380;28;20040;-57
2021/05/24 05:06:16;;;;;;;5.88;3.42;;;12.40;82.40;;;;;;5033381;28;20033;-56
2021/05/24 05:08:41;;;;;;;5.13;3.53;;;12.40;82.30;;;;;;5031676;28;20033;-56
2021/05/24 05:11:07;;;;;;;4.80;3.88;;;12.50;81.90;;;;;;5041124;28;20072;-58
2021/05/24 05:13:32;;;;;;;6.03;3.83;;;12.60;81.80;;;;;;5037681;28;20075;-59
2021/05/24 05:15:58;;;;;;;4.18;3.72;;;12.70;81.70;;;;;;5035261;28;20037;-59
2021/05/24 05:18:24;;;;;;;4.95;3.78;;;12.80;81.40;;;;;;5037593;28;20067;-57
2021/05/24 05:20:49;;;;;;;5.50;3.70;;;12.90;81.20;;;;;;5031183;28;20034;-59
2021/05/24 05:23:15;;;;;;;6.00;4.03;;;13.00;80.80;;;;;;5039124;28;20040;-57
2021/05/24 05:25:40;;;;;;;5.05;3.45;;;13.00;80.80;;;;;;5031694;28;20041;-57
2021/05/24 05:28:07;;;;;;;4.80;3.55;;;13.00;80.70;;;;;;5029419;28;20048;-55
2021/05/24 05:30:33;;;;;;;4.35;3.50;;;12.90;80.70;;;;;;5037072;28;20386;-58
2021/05/24 05:32:58;;;;;;;7.18;5.18;;;13.00;80.60;;;;;;5033688;28;20052;-56
2021/05/24 05:35:24;;;;;;;8.15;4.82;;;13.00;80.20;;;;;;5031900;28;20473;-57
2021/05/24 05:37:51;;;;;;;5.75;3.50;;;13.10;80.40;;;;;;5035438;28;20618;-58
2021/05/24 05:40:18;;;;;;;4.85;3.33;;;13.20;80.10;;;;;;5029828;28;20493;-56
2021/05/24 05:42:48;;;;;;;6.13;3.30;;;13.10;79.90;;;;;;5039419;28;20374;-58
2021/05/24 05:45:16;;;;;;;4.15;3.15;;;13.20;79.60;;;;;;5038344;28;20037;-57
2021/05/24 05:47:44;;;;;;;3.83;3.10;;;13.20;79.70;;;;;;5037971;28;20037;-58
2021/05/24 05:50:11;;;;;;;4.68;3.28;;;13.20;79.70;;;;;;5048880;28;20040;-56
2021/05/24 05:52:37;;;;;;;5.32;3.28;;;13.20;79.60;;;;;;5038386;28;20120;-59
2021/05/24 05:55:04;;;;;;;4.57;3.45;;;13.30;79.50;;;;;;5039378;28;20072;-58
2021/05/24 05:57:30;;;;;;;3.70;3.00;;;13.30;80.00;;;;;;5046379;28;20042;-54
2021/05/24 05:59:56;;;;;;;3.92;3.33;;;13.30;79.90;;;;;;5043182;28;20057;-58
2021/05/24 06:02:21;;;;;;;5.70;2.90;;;13.40;79.90;;;;;;5040054;28;20493;-59
2021/05/24 06:04:47;;;;;;;4.43;2.85;;;13.40;79.80;;;;;;5037537;28;20032;-56
2021/05/24 06:07:13;;;;;;;4.05;3.10;;;13.50;79.70;;;;;;5043223;28;20041;-59
2021/05/24 06:09:38;;;;;;;7.38;3.67;;;13.60;79.50;;;;;;5037244;28;20528;-59
2021/05/24 06:12:04;;;;;;;4.47;3.03;;;13.60;79.80;;;;;;5048751;28;20110;-59
2021/05/24 06:14:30;;;;;;;3.70;3.08;;;13.70;80.00;;;;;;5043242;28;20159;-57
2021/05/24 06:16:55;;;;;;;4.07;3.00;;;13.70;79.80;;;;;;5037731;28;20108;-57
2021/05/24 06:19:21;;;;;;;4.97;3.20;;;13.80;79.60;;;;;;5037705;28;20077;-56
2021/05/24 06:21:47;;;;;;;5.57;3.30;;;13.80;79.80;;;;;;5037572;28;20045;-59
2021/05/24 06:24:12;;;;;;;5.50;3.45;;;13.90;80.00;;;;;;5042802;28;20040;-57
2021/05/24 06:26:38;;;;;;;5.57;3.13;;;13.90;79.90;;;;;;5040318;28;20041;-59
2021/05/24 06:29:04;;;;;;;3.88;3.03;;;14.00;79.90;;;;;;5040221;28;20099;-59
2021/05/24 06:31:29;;;;;;;3.47;2.97;;;14.00;80.00;;;;;;5044101;28;20155;-56
2021/05/24 06:33:55;;;;;;;4.10;3.10;;;14.20;79.70;;;;;;5037729;28;20245;-55
2021/05/24 06:36:21;;;;;;;7.85;5.05;;;14.30;79.50;;;;;;5039137;28;20095;-58
2021/05/24 06:38:46;;;;;;;6.22;4.32;;;14.50;79.00;;;;;;5038639;28;20401;-58
2021/05/24 06:41:12;;;;;;;7.55;4.63;;;14.60;78.60;;;;;;5051290;28;20017;-56
2021/05/24 06:43:39;;;;;;;7.40;5.43;;;14.70;78.70;;;;;;5038539;28;20033;-57
2021/05/24 06:46:04;;;;;;;10.20;5.50;;;14.70;78.10;;;;;;5036959;28;20366;-56
2021/05/24 06:48:30;;;;;;;5.97;4.20;;;14.90;78.10;;;;;;5048489;28;20116;-55
2021/05/24 06:50:55;;;;;;;4.70;3.20;;;14.90;77.70;;;;;;5037613;28;20045;-57
2021/05/24 06:53:21;;;;;;;4.25;2.80;;;14.90;77.50;;;;;;5037067;28;20385;-60
2021/05/24 06:55:46;;;;;;;4.22;3.10;;;14.90;77.70;;;;;;5040887;28;20049;-57
2021/05/24 06:58:12;;;;;;;4.65;3.10;;;15.10;77.70;;;;;;5039411;28;20048;-57
2021/05/24 07:00:38;;;;;;;4.28;2.80;;;15.10;77.50;;;;;;5034319;28;20146;-58
2021/05/24 07:03:04;;;;;;;5.95;2.92;;;15.20;77.60;;;;;;5039240;28;20108;-58
2021/05/24 07:05:29;;;;;;;3.67;2.95;;;15.20;77.70;;;;;;5033799;28;20052;-57
2021/05/24 07:07:55;;;;;;;3.30;2.58;;;15.30;77.80;;;;;;5036498;28;20065;-58
2021/05/24 07:10:20;;;;;;;3.97;2.63;;;15.40;77.50;;;;;;5033700;28;20112;-57
2021/05/24 07:12:46;;;;;;;3.80;3.10;;;15.60;77.30;;;;;;5049596;28;20033;-56
2021/05/24 07:15:12;;;;;;;4.63;2.78;;;15.60;77.10;;;;;;5036164;28;20041;-58
2021/05/24 07:17:37;;;;;;;3.60;3.00;;;15.60;77.10;;;;;;5038038;28;20049;-57
2021/05/24 07:20:05;;;;;;;4.53;2.92;;;15.70;77.10;;;;;;5035140;28;20045;-57
2021/05/24 07:22:31;;;;;;;2.92;2.17;;;15.80;76.70;;;;;;5032147;28;20075;-58
2021/05/24 07:24:57;;;;;;;3.53;2.15;;;15.80;75.80;;;;;;5042921;28;20038;-58
2021/05/24 07:27:22;;;;;;;3.38;2.60;;;15.80;75.40;;;;;;5034317;28;20044;-58
2021/05/24 07:29:48;;;;;;;4.35;3.30;;;15.90;75.80;;;;;;5036885;28;20041;-58
2021/05/24 07:32:14;;;;;;;5.60;2.42;;;16.00;74.90;;;;;;5036316;28;20034;-58
2021/05/24 07:34:40;;;;;;;2.88;2.30;;;16.20;74.20;;;;;;5040963;28;20063;-53
2021/05/24 07:37:06;;;;;;;3.10;1.98;;;16.40;73.40;;;;;;5033619;28;20041;-57
2021/05/24 07:39:32;;;;;;;3.92;2.30;;;16.50;72.80;;;;;;5045728;28;20477;-56
2021/05/24 07:42:00;;;;;;;3.83;2.30;;;16.60;72.30;;;;;;5032761;28;20021;-59
2021/05/24 07:44:27;;;;;;;2.50;2.30;;;16.50;72.40;;;;;;5037960;28;20068;-58
2021/05/24 07:46:53;;;;;;;2.58;2.22;;;16.50;72.20;;;;;;5037475;28;20025;-57
2021/05/24 07:49:20;;;;;;;2.88;2.20;;;16.70;72.30;;;;;;5046812;28;20348;-58
2021/05/24 07:51:46;;;;;;;3.55;2.30;;;16.70;72.10;;;;;;5043276;28;20497;-60
2021/05/24 07:54:12;;;;;;;3.75;2.42;;;16.80;71.70;;;;;;5032816;28;20029;-53
2021/05/24 07:56:37;;;;;;;3.40;2.40;;;16.80;71.10;;;;;;5032947;28;20037;-58
2021/05/24 07:59:04;;;;;;;3.72;2.35;;;16.70;70.60;;;;;;5035433;28;20133;-59
2021/05/24 08:01:30;;;;;;;3.20;2.40;;;16.80;70.70;;;;;;5048523;28;20387;-57
2021/05/24 08:03:55;;;;;;;3.75;2.50;;;16.90;71.00;;;;;;5052141;28;20112;-58
2021/05/24 08:06:21;;;;;;;5.65;2.33;;;17.00;70.90;;;;;;5051791;28;20033;-58
2021/05/24 08:08:46;;;;;;;4.10;2.30;;;17.00;70.70;;;;;;5050598;28;20037;-57
2021/05/24 08:11:14;;;;;;;2.47;2.13;;;17.00;70.40;;;;;;5049547;28;20040;-57
2021/05/24 08:13:40;;;;;;;2.35;2.00;;;17.10;70.20;;;;;;5052969;28;20033;-58
2021/05/24 08:16:06;;;;;;;5.95;2.80;;;17.20;70.20;;;;;;5049540;28;20620;-58
2021/05/24 08:18:31;;;;;;;3.13;2.10;;;17.30;69.20;;;;;;5049277;28;20041;-59
2021/05/24 08:20:57;;;;;;;3.03;2.30;;;17.50;68.70;;;;;;5052312;28;20017;-58
2021/05/24 08:23:23;;;;;;;4.47;3.35;;;17.50;68.70;;;;;;5049814;28;20033;-58
2021/05/24 08:25:48;;;;;;;7.45;4.75;;;17.60;68.80;;;;;;5050395;28;20128;-59
2021/05/24 08:28:16;;;;;;;3.45;2.35;;;17.80;68.20;;;;;;5048307;28;20045;-60
2021/05/24 08:30:42;;;;;;;2.75;2.15;;;17.80;67.60;;;;;;5052453;28;20490;-56
2021/05/24 08:33:08;;;;;;;11.55;9.70;;;17.80;68.50;;;;;;5043252;28;20040;-59
2021/05/24 08:35:34;;;;;;;4.97;3.08;;;17.80;66.60;;;;;;5032557;28;20041;-58
2021/05/24 08:38:00;;;;;;;2.53;2.20;;;17.70;66.60;;;;;;5031811;28;20056;-57
2021/05/24 08:40:26;;;;;;;4.45;2.30;;;17.80;67.30;;;;;;5032297;28;20136;-60
2021/05/24 08:42:55;;;;;;;4.78;2.53;;;18.00;67.00;;;;;;5032279;28;20056;-58
2021/05/24 08:45:21;;;;;;;3.83;2.22;;;18.00;66.20;;;;;;5030805;28;20025;-55
2021/05/24 08:47:49;;;;;;;3.90;2.70;;;17.80;66.40;;;;;;5030665;28;20504;-58
2021/05/24 08:50:15;;;;;;;2.42;2.17;;;17.80;65.60;;;;;;5031780;28;20049;-58
2021/05/24 08:52:41;;;;;;;5.55;4.82;;;17.80;65.20;;;;;;5031191;28;20037;-54
2021/05/24 08:55:09;;;;;;;2.22;2.00;;;18.10;64.70;;;;;;5029691;28;20049;-59
2021/05/24 08:57:38;;;;;;;4.05;1.90;;;18.10;64.40;;;;;;5031943;28;20043;-59
2021/05/24 09:00:06;;;;;;;2.72;1.92;;;18.00;64.10;;;;;;5031031;28;20033;-59
2021/05/24 09:02:31;;;;;;;1.98;1.77;;;18.10;64.90;;;;;;5032090;28;20405;-56
2021/05/24 09:05:03;;;;;;;2.67;1.88;;;18.10;65.00;;;;;;5031754;28;20140;-57
2021/05/24 09:07:29;;;;;;;3.10;1.98;;;18.20;64.40;;;;;;5031983;28;20033;-58
2021/05/24 09:10:05;;;;;;;4.72;3.05;;;18.40;64.60;;;;;;5031867;28;20029;-58
2021/05/24 09:12:32;;;;;;;3.42;2.90;;;18.70;65.70;;;;;;5040894;28;20042;-58
2021/05/24 09:15:01;;;;;;;4.13;2.70;;;19.00;64.60;;;;;;5044814;28;20048;-57
2021/05/24 09:17:46;;;;;;;3.35;2.10;;;19.20;63.70;;;;;;5045434;28;20032;-58
2021/05/24 09:20:15;;;;;;;3.03;2.30;;;19.40;62.10;;;;;;5034891;28;20366;-56
2021/05/24 09:22:41;;;;;;;5.47;2.08;;;19.70;61.30;;;;;;5031764;28;20029;-58
2021/05/24 09:25:07;;;;;;;1.90;1.70;;;19.60;60.90;;;;;;5031937;28;20047;-56
2021/05/24 09:27:38;;;;;;;3.65;1.95;;;19.60;60.90;;;;;;5035597;28;20128;-58
2021/05/24 09:30:05;;;;;;;3.70;1.83;;;19.40;60.70;;;;;;5033953;28;20033;-56
2021/05/24 09:32:32;;;;;;;2.80;2.08;;;19.40;60.90;;;;;;5032943;28;20045;-60
2021/05/24 09:35:04;;;;;;;2.22;1.90;;;19.60;60.40;;;;;;5039733;28;20041;-55
2021/05/24 09:37:35;;;;;;;5.45;3.85;;;19.50;60.30;;;;;;5031389;28;20060;-58
2021/05/24 09:40:01;;;;;;;4.63;2.40;;;19.40;60.80;;;;;;5031532;28;20025;-56
2021/05/24 09:42:41;;;;;;;3.38;1.90;;;19.40;60.60;;;;;;5031137;28;20025;-57
2021/05/24 09:45:18;;;;;;;2.53;1.75;;;19.40;59.80;;;;;;5031214;28;20033;-58
2021/05/24 09:47:44;;;;;;;4.55;1.77;;;19.60;59.60;;;;;;5031767;28;20125;-59
2021/05/24 09:50:16;;;;;;;2.60;1.65;;;19.60;58.60;;;;;;5031308;28;20033;-61
2021/05/24 09:52:43;;;;;;;2.10;1.73;;;20.00;58.10;;;;;;5030218;28;20037;-53
2021/05/24 09:55:26;;;;;;;3.63;1.92;;;20.10;57.90;;;;;;5030375;28;20044;-57
2021/05/24 09:58:07;;;;;;;1.67;1.58;;;20.10;56.70;;;;;;5045177;28;20045;-56
2021/05/24 10:00:44;;;;;;;4.97;2.55;;;20.10;58.40;;;;;;5032152;28;20030;-58
2021/05/24 10:03:11;;;;;;;2.42;1.90;;;20.40;56.90;;;;;;5031738;28;20428;-57
2021/05/24 10:05:38;;;;;;;4.78;2.60;;;20.70;56.50;;;;;;5029477;28;20037;-57
2021/05/24 10:08:04;;;;;;;3.03;1.70;;;20.80;56.10;;;;;;5031415;28;20029;-59
2021/05/24 10:10:30;;;;;;;2.33;1.92;;;20.80;56.00;;;;;;5031096;28;20041;-59
2021/05/24 10:12:57;;;;;;;4.78;1.90;;;20.60;56.20;;;;;;5048193;28;20131;-59
2021/05/24 10:15:23;;;;;;;2.92;1.88;;;20.50;56.80;;;;;;5035279;28;20049;-59
2021/05/24 10:17:57;;;;;;;2.13;1.73;;;20.40;57.50;;;;;;5031839;28;20481;-59
2021/05/24 10:20:23;;;;;;;4.80;2.08;;;20.70;57.50;;;;;;5030759;28;20042;-57
2021/05/24 10:22:49;;;;;;;3.40;2.13;;;20.80;56.80;;;;;;5034739;28;20068;-57
2021/05/24 10:25:15;;;;;;;5.90;2.03;;;20.80;55.60;;;;;;5048973;28;20036;-58
2021/05/24 10:27:41;;;;;;;3.05;2.00;;;20.80;55.40;;;;;;5042914;28;20109;-57
2021/05/24 10:30:07;;;;;;;2.95;2.00;;;20.80;54.20;;;;;;5043448;28;20035;-59
2021/05/24 10:32:34;;;;;;;2.03;1.85;;;20.80;54.10;;;;;;5047117;28;20087;-60
2021/05/24 10:35:00;;;;;;;2.83;2.10;;;20.80;54.10;;;;;;5051953;28;20029;-57
2021/05/24 10:37:27;;;;;;;3.53;2.53;;;21.00;55.00;;;;;;5051088;28;20120;-58
2021/05/24 10:40:02;;;;;;;7.53;5.18;;;21.00;53.80;;;;;;5053099;28;20037;-58
2021/05/24 10:42:42;;;;;;;5.03;4.15;;;21.20;54.00;;;;;;5044888;28;20033;-57
2021/05/24 10:45:20;;;;;;;5.28;2.97;;;21.30;53.90;;;;;;5051556;28;20066;-55
2021/05/24 10:47:59;;;;;;;5.18;3.33;;;21.30;53.40;;;;;;5051307;28;20020;-59
2021/05/24 10:50:28;;;;;;;4.57;3.60;;;21.10;53.70;;;;;;5047010;28;20037;-58
2021/05/24 10:53:21;;;;;;;4.13;2.15;;;20.90;53.30;;;;;;5047908;28;20025;-58
2021/05/24 10:55:49;;;;;;;3.42;2.42;;;21.00;53.30;;;;;;5050758;28;20055;-58
2021/05/24 10:58:16;;;;;;;4.05;2.80;;;21.00;52.80;;;;;;5042116;28;20048;-59
2021/05/24 11:01:01;;;;;;;3.80;2.13;;;21.00;53.20;;;;;;5053392;28;20059;-59
2021/05/24 11:03:27;;;;;;;2.55;2.00;;;21.00;53.30;;;;;;5046798;28;20618;-58
2021/05/24 11:06:16;;;;;;;3.97;2.60;;;21.00;52.40;;;;;;5053890;28;20045;-57
2021/05/24 11:08:50;;;;;;;2.90;2.25;;;20.90;52.90;;;;;;5051344;28;20033;-56
2021/05/24 11:11:23;;;;;;;2.65;2.00;;;21.00;52.40;;;;;;5052679;28;20033;-59
2021/05/24 11:14:04;;;;;;;2.33;2.08;;;21.10;52.70;;;;;;5052097;28;20029;-58
2021/05/24 11:16:34;;;;;;;2.92;1.90;;;20.90;51.80;;;;;;5048894;28;20029;-59
2021/05/24 11:19:06;;;;;;;3.33;2.00;;;20.80;52.40;;;;;;5047459;28;20025;-59
2021/05/24 11:21:33;;;;;;;4.53;2.00;;;20.50;52.60;;;;;;5048995;28;20029;-59
2021/05/24 11:28:59;;;;;;;3.05;2.03;;;20.70;52.20;;;;;;5049453;28;20044;-58
2021/05/24 11:31:56;;;;;;;3.70;1.80;;;20.70;52.10;;;;;;5045047;28;20052;-61
2021/05/24 11:34:38;;;;;;;2.53;1.90;;;20.80;52.70;;;;;;5049836;28;20120;-58
2021/05/24 11:37:06;;;;;;;2.30;1.90;;;20.90;52.60;;;;;;5050857;28;20045;-58
2021/05/24 11:39:50;;;;;;;3.00;1.80;;;21.00;52.00;;;;;;5036514;28;20124;-58
2021/05/24 11:42:30;;;;;;;1.80;1.70;;;21.10;52.90;;;;;;5038372;28;20025;-57
2021/05/24 11:44:59;;;;;;;3.67;3.08;;;21.20;53.20;;;;;;5045388;28;20017;-57
2021/05/24 11:47:26;;;;;;;4.03;2.47;;;21.40;52.50;;;;;;5049730;28;20056;-53
2021/05/24 11:49:58;;;;;;;3.97;2.28;;;21.50;52.40;;;;;;5051984;28;20032;-58
2021/05/24 11:52:26;;;;;;;2.70;1.77;;;21.60;52.90;;;;;;5049705;28;20036;-58
2021/05/24 11:54:53;;;;;;;1.83;1.70;;;21.60;51.70;;;;;;5047323;28;20384;-59
2021/05/24 11:57:26;;;;;;;5.10;2.15;;;21.50;51.50;;;;;;5049663;28;20033;-57
2021/05/24 11:59:52;;;;;;;2.22;1.90;;;21.60;51.60;;;;;;5051133;28;20116;-59
2021/05/24 12:02:25;;;;;;;4.55;3.58;;;21.60;51.00;;;;;;5050225;28;20171;-57
2021/05/24 12:04:51;;;;;;;4.60;1.80;;;21.80;51.20;;;;;;5046084;28;20120;-59
2021/05/24 12:07:20;;;;;;;5.80;2.28;;;21.90;51.60;;;;;;5042815;28;20672;-58
2021/05/24 12:09:50;;;;;;;3.67;1.80;;;21.90;50.80;;;;;;5049928;28;20049;-58
2021/05/24 12:12:19;;;;;;;2.10;1.85;;;21.80;50.10;;;;;;5045925;28;20029;-59
2021/05/24 12:14:48;;;;;;;2.78;1.92;;;21.90;49.90;;;;;;5051753;28;20041;-59
2021/05/24 12:17:20;;;;;;;2.30;2.10;;;22.00;49.20;;;;;;5043038;28;20086;-59
2021/05/24 12:19:48;;;;;;;4.10;1.70;;;22.10;49.30;;;;;;5047294;28;20083;-59
2021/05/24 12:22:15;;;;;;;1.90;1.67;;;22.40;49.70;;;;;;5031954;28;20076;-57
2021/05/24 12:24:46;;;;;;;2.63;1.75;;;22.50;48.50;;;;;;5032471;28;20060;-59
2021/05/24 12:27:13;;;;;;;1.77;1.60;;;22.50;48.60;;;;;;5027461;28;20118;-57
2021/05/24 12:29:54;;;;;;;1.92;1.73;;;22.70;48.40;;;;;;5031874;28;20041;-57
2021/05/24 12:33:02;;;;;;;2.25;1.88;;;22.70;48.20;;;;;;5031898;28;20029;-59
2021/05/24 12:35:37;;;;;;;3.15;2.13;;;22.90;47.10;;;;;;5021313;28;20029;-58
2021/05/24 12:38:30;;;;;;;2.97;2.50;;;23.20;47.70;;;;;;5026990;28;20037;-58
2021/05/24 12:41:03;;;;;;;3.42;1.73;;;23.20;47.30;;;;;;5032763;28;20041;-59
2021/05/24 12:43:28;;;;;;;2.95;1.95;;;22.80;44.70;;;;;;5035825;28;20064;-57
2021/05/24 12:45:54;;;;;;;2.67;2.05;;;22.60;46.00;;;;;;5031870;28;20057;-56
2021/05/24 12:48:32;;;;;;;3.00;2.67;;;22.70;46.40;;;;;;5032002;28;20060;-57
2021/05/24 12:50:58;;;;;;;2.80;2.33;;;22.50;46.00;;;;;;5031350;28;20112;-59
2021/05/24 12:53:26;;;;;;;2.95;2.00;;;22.60;46.20;;;;;;5031116;28;20035;-59